createdAt,value
2019-03-29T00:00:16.011Z,180.00
2019-03-29T00:02:47.776Z,204.83
2019-03-29T00:05:18.219Z,198.67
2019-03-29T00:07:48.975Z,226.93
2019-03-29T00:10:20.266Z,251.30
2019-03-29T00:12:49.781Z,254.60
2019-03-29T00:15:19.251Z,203.83
2019-03-29T00:17:50.528Z,542.20
2019-03-29T00:20:20.211Z,198.97
2019-03-29T00:22:49.847Z,182.17
2019-03-29T00:25:19.982Z,185.23
2019-03-29T00:27:49.423Z,188.00
2019-03-29T00:30:19.070Z,212.23
2019-03-29T00:32:49.508Z,209.57
2019-03-29T00:35:19.986Z,232.70
2019-03-29T00:37:53.840Z,249.03
2019-03-29T00:40:20.569Z,290.23
2019-03-29T00:42:50.991Z,227.90
2019-03-29T00:45:20.546Z,235.13
2019-03-29T00:47:50.086Z,219.13
2019-03-29T00:50:19.594Z,281.20
2019-03-29T00:52:49.026Z,258.73
2019-03-29T00:55:18.509Z,250.67
2019-03-29T00:57:47.941Z,446.33
2019-03-29T01:00:17.596Z,336.77
2019-03-29T01:02:47.226Z,227.07
2019-03-29T01:05:18.243Z,216.20
2019-03-29T01:07:49.674Z,198.77
2019-03-29T01:10:19.591Z,219.93
2019-03-29T01:12:49.040Z,226.73
2019-03-29T01:15:24.456Z,191.50
2019-03-29T01:17:54.982Z,189.93
2019-03-29T01:20:25.633Z,207.97
2019-03-29T01:22:55.062Z,194.37
2019-03-29T01:25:24.577Z,215.00
2019-03-29T01:27:54.005Z,176.73
2019-03-29T01:30:23.686Z,189.47
2019-03-29T01:32:53.179Z,196.13
2019-03-29T01:35:22.710Z,197.13
2019-03-29T01:37:53.221Z,216.07
2019-03-29T01:40:22.830Z,203.93
2019-03-29T01:42:52.313Z,191.20
2019-03-29T01:45:21.852Z,200.60
2019-03-29T01:47:51.284Z,220.83
2019-03-29T01:50:20.922Z,218.20
2019-03-29T01:52:50.382Z,202.03
2019-03-29T01:55:19.851Z,194.47
2019-03-29T01:57:49.291Z,200.77
2019-03-29T02:00:36.086Z,187.97
2019-03-29T02:03:07.139Z,167.43
2019-03-29T02:05:36.611Z,163.33
2019-03-29T02:08:08.200Z,162.80
2019-03-29T02:10:37.734Z,163.40
2019-03-29T02:13:08.152Z,147.70
2019-03-29T02:15:37.922Z,138.43
2019-03-29T02:18:07.729Z,147.33
2019-03-29T02:20:38.262Z,146.53
2019-03-29T02:23:07.789Z,152.53
2019-03-29T02:25:38.221Z,144.03
2019-03-29T02:28:07.723Z,155.07
2019-03-29T02:30:37.299Z,144.20
2019-03-29T02:33:06.870Z,134.50
2019-03-29T02:35:38.434Z,125.40
2019-03-29T02:38:07.459Z,118.97
2019-03-29T02:40:37.029Z,126.10
2019-03-29T02:43:06.530Z,134.63
2019-03-29T02:45:36.018Z,90.30
2019-03-29T02:48:05.469Z,97.60
2019-03-29T02:50:36.649Z,91.87
2019-03-29T02:53:07.373Z,96.40
2019-03-29T02:55:36.876Z,93.23
2019-03-29T02:58:06.411Z,107.00
2019-03-29T03:00:35.984Z,109.67
2019-03-29T03:03:05.509Z,102.80
2019-03-29T03:05:35.117Z,96.63
2019-03-29T03:08:04.707Z,103.63
2019-03-29T03:10:34.182Z,97.80
2019-03-29T03:13:03.647Z,121.20
2019-03-29T03:15:33.159Z,127.50
2019-03-29T03:18:02.670Z,128.20
2019-03-29T03:20:32.202Z,121.97
2019-03-29T03:23:01.787Z,120.30
2019-03-29T03:25:31.315Z,116.23
2019-03-29T03:28:00.819Z,117.77
2019-03-29T03:30:30.330Z,120.17
2019-03-29T03:32:59.853Z,121.83
2019-03-29T03:35:29.410Z,113.60
2019-03-29T03:38:01.032Z,109.07
2019-03-29T03:40:30.460Z,108.77
2019-03-29T03:42:59.916Z,110.93
2019-03-29T03:45:48.680Z,105.73
2019-03-29T03:48:18.162Z,108.73
2019-03-29T03:50:47.733Z,111.30
2019-03-29T03:53:17.722Z,112.07
2019-03-29T03:55:53.194Z,113.67
2019-03-29T03:58:23.677Z,115.33
2019-03-29T04:00:58.139Z,119.33
2019-03-29T04:03:28.011Z,109.67
2019-03-29T04:05:57.827Z,106.30
2019-03-29T04:08:27.661Z,111.90
2019-03-29T04:10:57.578Z,116.30
2019-03-29T04:13:27.177Z,106.37
2019-03-29T04:15:56.764Z,120.83
2019-03-29T04:18:26.398Z,116.03
2019-03-29T04:20:55.958Z,123.93
2019-03-29T04:23:25.610Z,122.50
2019-03-29T04:25:55.162Z,149.40
2019-03-29T04:28:25.670Z,169.27
2019-03-29T04:30:55.143Z,144.40
2019-03-29T04:33:24.633Z,146.73
2019-03-29T04:35:54.123Z,144.87
2019-03-29T04:38:23.667Z,171.17
2019-03-29T04:40:53.163Z,159.30
2019-03-29T04:43:22.717Z,118.30
2019-03-29T04:45:52.207Z,138.90
2019-03-29T04:48:21.674Z,147.60
2019-03-29T04:50:51.219Z,138.03
2019-03-29T04:53:24.713Z,141.77
2019-03-29T04:55:54.145Z,127.97
2019-03-29T04:58:23.679Z,124.23
2019-03-29T05:00:53.188Z,119.30
2019-03-29T05:03:22.658Z,129.00
2019-03-29T05:05:53.051Z,124.27
2019-03-29T05:08:22.577Z,118.37
2019-03-29T05:10:52.027Z,114.97
2019-03-29T05:13:21.465Z,121.43
2019-03-29T05:15:50.921Z,122.40
2019-03-29T05:18:20.546Z,123.07
2019-03-29T05:20:49.987Z,120.08
2019-03-29T05:23:19.555Z,120.60
2019-03-29T05:25:50.961Z,109.37
2019-03-29T05:28:21.562Z,112.53
2019-03-29T05:30:51.065Z,104.60
2019-03-29T05:33:20.572Z,99.80
2019-03-29T05:35:50.043Z,94.17
2019-03-29T05:38:19.523Z,94.93
2019-03-29T05:40:49.980Z,87.30
2019-03-29T05:43:19.474Z,87.47
2019-03-29T05:45:48.891Z,94.73
2019-03-29T05:48:18.439Z,97.33
2019-03-29T05:50:48.492Z,95.10
2019-03-29T05:53:17.987Z,87.90
2019-03-29T05:55:48.478Z,84.10
2019-03-29T05:58:19.178Z,85.63
2019-03-29T06:00:48.618Z,86.97
2019-03-29T06:03:18.132Z,84.00
2019-03-29T06:05:48.536Z,77.13
2019-03-29T06:08:18.096Z,81.97
2019-03-29T06:10:49.250Z,81.20
2019-03-29T06:13:18.763Z,79.93
2019-03-29T06:15:48.191Z,81.47
2019-03-29T06:18:17.730Z,78.30
2019-03-29T06:20:47.265Z,79.60
2019-03-29T06:23:17.921Z,81.27
2019-03-29T06:25:47.493Z,75.27
2019-03-29T06:28:20.408Z,75.17
2019-03-29T06:30:51.877Z,68.57
2019-03-29T06:33:21.539Z,76.20
2019-03-29T06:35:52.053Z,70.30
2019-03-29T06:38:25.690Z,77.57
2019-03-29T06:41:02.723Z,73.63
2019-03-29T06:43:26.622Z,72.67
2019-03-29T06:45:56.099Z,74.33
2019-03-29T06:48:25.540Z,68.80
2019-03-29T06:50:55.084Z,65.90
2019-03-29T06:53:24.546Z,63.93
2019-03-29T06:55:54.099Z,69.03
2019-03-29T06:58:23.497Z,60.07
2019-03-29T07:00:52.970Z,62.97
2019-03-29T07:03:22.456Z,66.20
2019-03-29T07:05:53.048Z,59.53
2019-03-29T07:08:22.536Z,56.60
2019-03-29T07:10:52.085Z,54.50
2019-03-29T07:13:21.602Z,55.00
2019-03-29T07:15:51.052Z,57.27
2019-03-29T07:18:20.472Z,52.77
2019-03-29T07:20:49.969Z,54.23
2019-03-29T07:23:19.444Z,50.53
2019-03-29T07:25:49.650Z,49.73
2019-03-29T07:28:19.078Z,49.27
2019-03-29T07:30:48.524Z,51.63
2019-03-29T07:33:18.053Z,45.97
2019-03-29T07:35:48.594Z,50.97
2019-03-29T07:38:18.102Z,47.47
2019-03-29T07:40:47.608Z,47.57
2019-03-29T07:43:17.082Z,44.83
2019-03-29T07:45:46.616Z,49.23
2019-03-29T07:48:16.040Z,42.93
2019-03-29T07:50:45.586Z,42.57
2019-03-29T07:53:15.140Z,37.47
2019-03-29T07:55:44.661Z,37.67
2019-03-29T07:58:14.192Z,31.90
2019-03-29T08:00:44.731Z,38.85
2019-03-29T08:03:14.150Z,33.63
2019-03-29T08:05:45.164Z,23.97
2019-03-29T08:08:23.786Z,25.83
2019-03-29T08:10:45.868Z,17.43
2019-03-29T08:13:16.245Z,15.03
2019-03-29T08:15:46.197Z,9.87
2019-03-29T08:18:15.809Z,6.70
2019-03-29T08:20:45.258Z,8.53
2019-03-29T08:23:14.794Z,7.53
2019-03-29T08:25:45.469Z,7.00
2019-03-29T08:28:15.003Z,7.03
2019-03-29T08:30:45.954Z,7.97
2019-03-29T08:33:15.450Z,7.43
2019-03-29T08:35:46.055Z,8.00
2019-03-29T08:38:15.483Z,7.00
2019-03-29T08:40:45.430Z,8.43
2019-03-29T08:43:15.033Z,6.10
2019-03-29T08:45:44.568Z,8.47
2019-03-29T08:48:14.307Z,6.30
2019-03-29T08:50:49.704Z,6.83
2019-03-29T08:53:20.375Z,7.73
2019-03-29T08:55:49.962Z,8.77
2019-03-29T08:58:19.575Z,7.03
2019-03-29T09:00:49.279Z,6.07
2019-03-29T09:03:20.024Z,6.07
2019-03-29T09:05:51.120Z,6.17
2019-03-29T09:08:20.702Z,5.57
2019-03-29T09:10:50.232Z,6.07
2019-03-29T09:13:19.939Z,7.10
2019-03-29T09:15:49.387Z,8.23
2019-03-29T09:18:18.823Z,9.03
2019-03-29T09:20:48.369Z,8.37
2019-03-29T09:23:17.841Z,7.80
2019-03-29T09:25:47.282Z,8.63
2019-03-29T09:28:16.823Z,9.03
2019-03-29T09:30:46.403Z,9.73
2019-03-29T09:33:15.889Z,8.83
2019-03-29T09:35:45.437Z,9.87
2019-03-29T09:38:15.157Z,8.97
2019-03-29T09:40:53.491Z,12.20
2019-03-29T09:43:15.902Z,8.60
2019-03-29T09:45:47.285Z,8.97
2019-03-29T09:48:16.913Z,9.87
2019-03-29T09:50:50.414Z,9.57
2019-03-29T09:53:17.840Z,9.27
2019-03-29T09:55:47.485Z,9.17
2019-03-29T09:58:17.153Z,10.33
2019-03-29T10:00:46.750Z,10.97
2019-03-29T10:03:16.187Z,12.20
2019-03-29T10:05:45.751Z,11.03
2019-03-29T10:08:15.328Z,10.77
2019-03-29T10:10:45.848Z,19.90
2019-03-29T10:13:15.406Z,10.43
2019-03-29T10:18:25.155Z,11.47
2019-03-29T10:20:54.802Z,11.30
2019-03-29T10:23:24.294Z,11.87
2019-03-29T10:25:53.693Z,10.00
2019-03-29T10:28:23.262Z,11.50
2019-03-29T10:30:52.965Z,10.97
2019-03-29T10:33:22.525Z,10.73
2019-03-29T10:35:53.099Z,10.53
2019-03-29T10:38:22.791Z,11.30
2019-03-29T10:40:52.208Z,13.83
2019-03-29T10:43:21.725Z,12.87
2019-03-29T10:45:58.842Z,11.20
2019-03-29T10:48:28.359Z,11.27
2019-03-29T10:50:57.853Z,10.73
2019-03-29T10:53:28.978Z,12.27
2019-03-29T10:55:59.667Z,11.17
2019-03-29T10:58:29.102Z,11.10
2019-03-29T11:00:58.610Z,11.30
2019-03-29T11:03:28.878Z,12.10
2019-03-29T11:05:58.624Z,11.50
2019-03-29T11:08:28.151Z,12.23
2019-03-29T11:10:57.569Z,11.10
2019-03-29T11:13:27.335Z,10.90
2019-03-29T11:15:56.920Z,11.00
2019-03-29T11:18:26.500Z,9.50
2019-03-29T11:20:56.043Z,8.70
2019-03-29T11:23:25.521Z,10.33
2019-03-29T11:25:57.470Z,14.00
2019-03-29T11:28:27.079Z,10.30
2019-03-29T11:30:56.488Z,8.00
2019-03-29T11:33:27.148Z,10.57
2019-03-29T11:35:56.696Z,8.23
2019-03-29T11:38:26.162Z,8.30
2019-03-29T11:40:55.563Z,8.17
2019-03-29T11:43:26.963Z,9.93
2019-03-29T11:45:56.335Z,8.93
2019-03-29T11:48:25.859Z,8.80
2019-03-29T11:50:55.379Z,10.80
2019-03-29T11:53:24.848Z,9.70
2019-03-29T11:55:55.283Z,7.80
2019-03-29T11:58:24.917Z,8.03
2019-03-29T12:00:54.398Z,8.80
2019-03-29T12:03:23.857Z,7.90
2019-03-29T12:05:54.414Z,7.33
2019-03-29T12:08:24.176Z,6.70
2019-03-29T12:10:53.668Z,6.97
2019-03-29T12:13:23.195Z,8.07
2019-03-29T12:15:52.862Z,8.20
2019-03-29T12:18:22.447Z,8.13
2019-03-29T12:20:54.382Z,5.63
2019-03-29T12:23:23.052Z,5.97
2019-03-29T12:25:52.694Z,5.90
2019-03-29T12:28:22.221Z,6.47
2019-03-29T12:30:51.735Z,7.33
2019-03-29T12:33:22.261Z,9.07
2019-03-29T12:35:51.821Z,8.17
2019-03-29T12:38:21.220Z,7.90
2019-03-29T12:40:51.663Z,8.00
2019-03-29T12:43:21.217Z,7.90
2019-03-29T12:45:50.736Z,8.33
2019-03-29T12:48:20.224Z,9.00
2019-03-29T12:50:50.036Z,8.13
2019-03-29T12:53:19.676Z,9.67
2019-03-29T12:55:49.185Z,7.50
2019-03-29T12:58:18.728Z,7.77
2019-03-29T13:00:48.350Z,9.80
2019-03-29T13:03:17.985Z,8.03
2019-03-29T13:05:47.563Z,8.07
2019-03-29T13:08:18.108Z,7.47
2019-03-29T13:10:47.700Z,8.77
2019-03-29T13:13:17.248Z,7.93
2019-03-29T13:15:46.740Z,9.87
2019-03-29T13:18:16.238Z,7.73
2019-03-29T13:20:45.752Z,8.03
2019-03-29T13:23:15.240Z,7.97
2019-03-29T13:25:44.658Z,8.20
2019-03-29T13:28:15.153Z,9.03
2019-03-29T13:30:44.898Z,6.93
2019-03-29T13:33:14.446Z,7.03
2019-03-29T13:35:44.659Z,8.37
2019-03-29T13:38:14.395Z,8.30
2019-03-29T13:40:43.854Z,8.90
2019-03-29T13:43:13.342Z,6.00
2019-03-29T13:45:42.806Z,6.07
2019-03-29T13:48:12.291Z,6.40
2019-03-29T13:50:41.816Z,6.17
2019-03-29T13:53:11.375Z,7.00
2019-03-29T13:55:40.825Z,7.63
2019-03-29T13:58:10.300Z,6.80
2019-03-29T14:00:39.852Z,7.00
2019-03-29T14:03:09.291Z,9.10
2019-03-29T14:05:38.944Z,9.83
2019-03-29T14:08:09.627Z,8.67
2019-03-29T14:10:39.202Z,8.40
2019-03-29T14:13:08.714Z,8.73
2019-03-29T14:15:38.148Z,8.57
2019-03-29T14:18:07.799Z,9.20
2019-03-29T14:20:37.434Z,9.20
2019-03-29T14:23:07.031Z,11.87
2019-03-29T14:25:36.630Z,10.73
2019-03-29T14:28:06.112Z,9.40
2019-03-29T14:30:35.608Z,9.47
2019-03-29T14:33:05.168Z,9.53
2019-03-29T14:35:35.745Z,9.27
2019-03-29T14:38:05.311Z,11.20
2019-03-29T14:40:34.851Z,12.15
2019-03-29T14:43:10.224Z,11.33
2019-03-29T14:45:41.666Z,11.73
2019-03-29T14:48:11.216Z,11.63
2019-03-29T14:50:40.791Z,12.00
2019-03-29T14:53:10.326Z,12.13
2019-03-29T14:55:39.805Z,12.00
2019-03-29T14:58:09.271Z,10.77
2019-03-29T15:00:43.703Z,11.03
2019-03-29T15:03:13.486Z,12.17
2019-03-29T15:05:43.095Z,10.13
2019-03-29T15:08:12.665Z,12.70
2019-03-29T15:10:45.473Z,9.13
2019-03-29T15:13:13.367Z,10.53
2019-03-29T15:15:42.848Z,9.47
2019-03-29T15:18:12.389Z,9.07
2019-03-29T15:20:52.707Z,8.50
2019-03-29T15:23:13.046Z,10.43
2019-03-29T15:25:42.512Z,13.33
2019-03-29T15:28:12.101Z,9.07
2019-03-29T15:30:41.580Z,9.77
2019-03-29T15:33:11.013Z,9.13
2019-03-29T15:35:40.414Z,8.93
2019-03-29T15:38:09.861Z,9.97
2019-03-29T15:40:39.347Z,9.97
2019-03-29T15:43:09.960Z,11.37
2019-03-29T15:45:40.332Z,11.20
2019-03-29T15:48:09.966Z,13.03
2019-03-29T15:50:39.453Z,11.13
2019-03-29T15:53:09.031Z,12.10
2019-03-29T15:55:38.440Z,14.50
2019-03-29T15:58:07.883Z,11.10
2019-03-29T16:00:39.143Z,11.37
2019-03-29T16:03:08.686Z,10.50
2019-03-29T16:05:39.803Z,10.83
2019-03-29T16:08:10.331Z,12.40
2019-03-29T16:10:41.396Z,16.40
2019-03-29T16:13:11.195Z,20.07
2019-03-29T16:15:40.705Z,16.90
2019-03-29T16:18:11.701Z,11.83
2019-03-29T16:20:41.225Z,12.57
2019-03-29T16:23:10.870Z,13.30
2019-03-29T16:25:40.310Z,14.00
2019-03-29T16:28:09.943Z,12.17
2019-03-29T16:30:39.560Z,17.43
2019-03-29T16:33:09.004Z,15.10
2019-03-29T16:35:38.536Z,15.17
2019-03-29T16:38:09.148Z,14.13
2019-03-29T16:40:38.689Z,15.43
2019-03-29T16:43:08.246Z,17.87
2019-03-29T16:45:47.807Z,18.17
2019-03-29T16:48:12.545Z,24.37
2019-03-29T16:50:42.172Z,22.77
2019-03-29T16:53:11.612Z,16.70
2019-03-29T16:55:41.199Z,13.93
2019-03-29T16:58:10.950Z,18.80
2019-03-29T17:00:40.477Z,17.87
2019-03-29T17:03:10.049Z,14.10
2019-03-29T17:05:42.016Z,14.63
2019-03-29T17:08:10.731Z,13.27
2019-03-29T17:10:40.224Z,12.33
2019-03-29T17:13:09.806Z,14.57
2019-03-29T17:15:39.389Z,14.43
2019-03-29T17:18:08.953Z,20.23
2019-03-29T17:20:40.040Z,17.37
2019-03-29T17:23:09.498Z,36.07
2019-03-29T17:25:38.950Z,17.73
2019-03-29T17:28:08.565Z,21.27
2019-03-29T17:30:41.662Z,25.40
2019-03-29T17:33:12.274Z,19.83
2019-03-29T17:35:41.884Z,18.53
2019-03-29T17:38:11.318Z,23.20
2019-03-29T17:40:40.822Z,19.10
2019-03-29T17:43:10.329Z,28.60
2019-03-29T17:45:39.941Z,35.47
2019-03-29T17:48:09.566Z,38.63
2019-03-29T17:50:39.702Z,38.60
2019-03-29T17:53:10.935Z,37.30
2019-03-29T17:55:40.430Z,37.17
2019-03-29T17:58:10.002Z,35.70
2019-03-29T18:00:39.420Z,40.67
2019-03-29T18:03:09.972Z,34.60
2019-03-29T18:05:39.469Z,25.67
2019-03-29T18:08:09.033Z,26.23
2019-03-29T18:10:38.660Z,32.63
2019-03-29T18:13:08.092Z,39.87
2019-03-29T18:15:37.657Z,32.13
2019-03-29T18:18:07.068Z,28.87
2019-03-29T18:20:36.583Z,29.83
2019-03-29T18:23:07.006Z,27.77
2019-03-29T18:25:37.531Z,40.70
2019-03-29T18:28:07.041Z,49.67
2019-03-29T18:30:38.957Z,71.00
2019-03-29T18:33:08.597Z,70.03
2019-03-29T18:35:38.359Z,60.80
2019-03-29T18:38:08.015Z,56.57
2019-03-29T18:40:38.483Z,59.93
2019-03-29T18:43:07.989Z,60.40
2019-03-29T18:45:41.358Z,58.00
2019-03-29T18:48:08.855Z,61.83
2019-03-29T18:50:38.354Z,63.70
2019-03-29T18:53:07.841Z,79.17
2019-03-29T18:55:37.375Z,91.80
2019-03-29T18:58:06.979Z,66.80
2019-03-29T19:00:36.618Z,56.40
2019-03-29T19:03:06.177Z,51.63
2019-03-29T19:05:36.019Z,36.17
2019-03-29T19:08:08.806Z,39.00
2019-03-29T19:10:38.689Z,56.90
2019-03-29T19:13:09.338Z,67.10
2019-03-29T19:15:39.951Z,78.03
2019-03-29T19:18:09.641Z,117.93
2019-03-29T19:20:39.190Z,89.23
2019-03-29T19:23:08.783Z,63.47
2019-03-29T19:25:38.310Z,74.67
2019-03-29T19:28:07.874Z,89.30
2019-03-29T19:30:38.437Z,95.67
2019-03-29T19:33:08.046Z,116.07
2019-03-29T19:35:37.603Z,132.87
2019-03-29T19:38:07.242Z,189.90
2019-03-29T19:40:37.684Z,386.75
2019-03-29T19:43:07.200Z,201.13
2019-03-29T19:45:38.603Z,139.90
2019-03-29T19:48:08.138Z,148.73
2019-03-29T19:50:37.681Z,143.50
2019-03-29T19:53:08.160Z,167.50
2019-03-29T19:55:37.679Z,82.23
2019-03-29T19:58:07.175Z,56.57
2019-03-29T20:00:41.055Z,111.68
2019-03-29T20:03:10.780Z,152.37
2019-03-29T20:05:40.404Z,83.13
2019-03-29T20:08:09.975Z,147.77
2019-03-29T20:10:39.553Z,146.47
2019-03-29T20:13:09.092Z,115.03
2019-03-29T20:15:39.647Z,115.20
2019-03-29T20:18:09.190Z,102.57
2019-03-29T20:20:38.632Z,79.80
2019-03-29T20:23:08.231Z,74.33
2019-03-29T20:25:37.765Z,57.40
2019-03-29T20:28:08.421Z,53.80
2019-03-29T20:30:37.980Z,48.83
2019-03-29T20:33:07.897Z,47.87
2019-03-29T20:35:38.127Z,52.93
2019-03-29T20:38:09.563Z,55.47
2019-03-29T20:40:39.756Z,55.07
2019-03-29T20:43:09.244Z,65.20
2019-03-29T20:45:39.379Z,68.93
2019-03-29T20:48:08.794Z,68.57
2019-03-29T20:50:39.002Z,81.83
2019-03-29T20:53:11.587Z,77.80
2019-03-29T20:55:41.208Z,74.63
2019-03-29T20:58:11.330Z,73.97
2019-03-29T21:00:40.853Z,80.33
2019-03-29T21:03:12.634Z,90.37
2019-03-29T21:05:42.242Z,96.30
2019-03-29T21:08:12.625Z,108.20
2019-03-29T21:10:55.048Z,111.60
2019-03-29T21:13:14.110Z,106.40
2019-03-29T21:15:43.709Z,103.73
2019-03-29T21:18:17.242Z,99.87
2019-03-29T21:20:45.087Z,105.17
2019-03-29T21:23:15.308Z,104.03
2019-03-29T21:25:45.392Z,90.73
2019-03-29T21:28:16.692Z,106.03
2019-03-29T21:30:47.223Z,121.90
2019-03-29T21:33:20.577Z,136.77
2019-03-29T21:35:50.778Z,148.13
2019-03-29T21:38:21.003Z,136.20
2019-03-29T21:40:51.224Z,100.80
2019-03-29T21:43:21.427Z,116.90
2019-03-29T21:45:51.582Z,114.63
2019-03-29T21:48:29.350Z,95.40
2019-03-29T21:50:53.477Z,97.07
2019-03-29T21:53:23.768Z,76.20
2019-03-29T21:55:53.847Z,72.93
2019-03-29T21:58:23.376Z,90.87
2019-03-29T22:00:53.623Z,107.83
2019-03-29T22:03:23.062Z,118.70
2019-03-29T22:05:53.462Z,116.47
2019-03-29T22:08:25.370Z,103.47
2019-03-29T22:10:55.546Z,101.50
2019-03-29T22:13:25.022Z,105.13
2019-03-29T22:15:56.083Z,79.00
2019-03-29T22:18:37.223Z,72.97
2019-03-29T22:20:58.477Z,78.33
2019-03-29T22:23:28.755Z,67.13
2019-03-29T22:25:59.335Z,58.07
2019-03-29T22:28:29.644Z,78.30
2019-03-29T22:31:00.914Z,73.93
2019-03-29T22:33:31.242Z,83.97
2019-03-29T22:36:00.781Z,81.70
2019-03-29T22:38:31.045Z,281.43
2019-03-29T22:41:01.288Z,313.33
2019-03-29T22:43:31.549Z,161.93
2019-03-29T22:46:01.950Z,140.23
2019-03-29T22:48:32.585Z,54.13
2019-03-29T22:51:02.703Z,59.57
2019-03-29T22:53:32.342Z,60.33
2019-03-29T22:56:02.602Z,58.87
2019-03-29T22:58:33.239Z,56.60
2019-03-29T23:01:05.435Z,60.80
2019-03-29T23:03:36.684Z,60.90
2019-03-29T23:06:07.074Z,66.83
2019-03-29T23:08:37.235Z,66.60
2019-03-29T23:11:07.864Z,55.52
2019-03-29T23:13:38.202Z,53.87
2019-03-29T23:16:08.451Z,54.87
2019-03-29T23:18:38.707Z,54.37
2019-03-29T23:21:08.867Z,51.97
2019-03-29T23:23:39.070Z,55.23
2019-03-29T23:26:10.373Z,55.93
2019-03-29T23:28:40.538Z,51.07
2019-03-29T23:31:11.131Z,51.17
2019-03-29T23:33:41.419Z,52.73
2019-03-29T23:36:11.855Z,50.73
2019-03-29T23:38:42.230Z,47.33
2019-03-29T23:41:12.475Z,53.47
2019-03-29T23:43:43.633Z,53.07
2019-03-29T23:46:13.808Z,66.80
2019-03-29T23:48:44.287Z,68.63
2019-03-29T23:51:14.483Z,66.37
2019-03-29T23:53:44.620Z,61.40
2019-03-29T23:56:14.346Z,61.67
2019-03-29T23:58:44.610Z,55.80
